map of GFF home
GFF - Airport
Location
City:  Griffith, New South Wales, Australia
ICAO:YGTH
IATA:GFF

Details
Type:Airport (Aerodrome, Airfield)
Latitude:3415'03"S (-34.250832)
Longitude:14604'02"E (146.067222)
Datum:WGS 1984
Elevation:439 ft (134 m)
Variation:10.84E (WMM2015v2 magnetic declination)
0.00 annual change
Runways:2
Longest:4931 × 98 ft (1503 × 30 m), paved

Time
Time Zone:UTC+10 (DST+11)
Local Time:

Weather
METAR:YGTH 041400Z AUTO 16011KT 9999 // NCD 28/14 Q1010

Related Locations
Nearby:
Farthest:FLW: 12041 mi / 19378 km
Flores Island [Santa Cruz], 20, PT

Find:

   beyond  
but within

Other Information
Maps:
NOTAMs:
Links:
Sources:

  
  • flag of Australia
  • flag of New South Wales
  

Sectional Chart

Flight Planning
at skyvector.com

Satellite Image

Google Maps Satellite view

 

Copyright © 2004-2019 Karl L. Swartz. All rights reserved.
The Great Circle Mapper name and logo are trademarks of the Great Circle Mapper.
All other trademarks mentioned herein belong to their respective owners.
Please see credits for attibutions and further copyright information.

  Follow gcmap on Facebook Follow gcmap on Twitter GCmap on LinkedIn

hCard Microformat

Geo Microformat